Time;durP1;ratioP1;P1;durP2;ratioP2;P2;SDS_P1;SDS_P2;PMS_P1;PMS_P2;Temp;Humidity;BMP_temperature;BMP_pressure;BME280_temperature;BME280_humidity;BME280_pressure;Samples;Min_cycle;Max_cycle;Signal;HPM_P1;HPM_P2
2023/01/21 00:01:41;;;;;;;1.33;1.33;;;;;;;0.32;77.56;101798.84;5118411;28;20031;-80
2023/01/21 00:04:11;;;;;;;2.65;2.45;;;;;;;0.29;77.30;101798.72;5140268;28;20134;-80
2023/01/21 00:06:42;;;;;;;0.95;0.95;;;;;;;0.13;77.28;101802.47;5136028;28;20035;-81
2023/01/21 00:09:12;;;;;;;1.65;1.55;;;;;;;0.25;77.11;101813.22;5127639;28;20027;-81
2023/01/21 00:11:43;;;;;;;0.80;0.80;;;;;;;0.30;77.19;101806.50;5122205;28;20445;-81
2023/01/21 00:14:13;;;;;;;2.42;2.28;;;;;;;0.31;76.75;101812.56;5115283;28;20023;-81
2023/01/21 00:16:44;;;;;;;1.15;1.15;;;;;;;0.30;76.98;101815.97;5124167;28;20548;-81
2023/01/21 00:19:14;;;;;;;8.88;2.30;;;;;;;0.31;76.81;101815.16;5107412;28;20023;-80
2023/01/21 00:21:45;;;;;;;0.30;0.30;;;;;;;0.35;76.64;101829.03;5117726;28;20081;-81
2023/01/21 00:24:16;;;;;;;2.05;1.85;;;;;;;0.29;76.71;101830.56;5130814;28;20069;-81
2023/01/21 00:26:46;;;;;;;0.40;0.40;;;;;;;0.26;76.75;101833.06;5112938;28;20047;-80
2023/01/21 00:29:17;;;;;;;1.30;1.30;;;;;;;0.13;77.37;101833.47;5122135;28;20038;-82
2023/01/21 00:31:48;;;;;;;1.17;1.17;;;;;;;0.20;77.46;101837.13;5101684;28;20040;-82
2023/01/21 00:34:18;;;;;;;0.70;0.70;;;;;;;0.14;77.27;101835.22;5125691;28;20031;-82
2023/01/21 00:36:48;;;;;;;4.47;1.70;;;;;;;-0.14;78.03;101839.44;5122465;28;20037;-83
2023/01/21 00:39:19;;;;;;;1.45;1.42;;;;;;;-0.06;77.67;101838.00;5133001;28;20077;-81
2023/01/21 00:41:49;;;;;;;3.53;2.38;;;;;;;-0.03;77.98;101842.41;5120429;28;20047;-81
2023/01/21 00:44:20;;;;;;;1.67;1.58;;;;;;;0.07;77.48;101841.91;5112911;28;20059;-80
2023/01/21 00:46:50;;;;;;;1.48;1.38;;;;;;;-0.03;77.85;101847.56;5119204;28;20042;-83
2023/01/21 00:49:21;;;;;;;6.03;4.05;;;;;;;-0.22;78.70;101856.38;5113861;28;20046;-81
2023/01/21 00:51:51;;;;;;;0.98;0.98;;;;;;;-0.10;78.49;101861.94;5117122;28;20047;-81
2023/01/21 00:54:22;;;;;;;4.80;1.85;;;;;;;-0.02;78.08;101863.09;5115622;28;20796;-81
2023/01/21 00:56:53;;;;;;;3.47;3.15;;;;;;;0.02;77.65;101861.50;5137513;28;20039;-81
2023/01/21 00:59:24;;;;;;;1.77;1.67;;;;;;;-0.09;77.82;101878.31;5117383;28;20038;-81
2023/01/21 01:01:54;;;;;;;1.00;1.00;;;;;;;0.02;77.57;101889.00;5121438;28;20043;-81
2023/01/21 01:04:25;;;;;;;1.73;1.63;;;;;;;0.08;77.74;101891.78;5116872;29;20035;-82
2023/01/21 01:06:55;;;;;;;0.40;0.40;;;;;;;0.11;77.58;101894.50;5123023;28;20047;-81
2023/01/21 01:09:26;;;;;;;1.20;1.20;;;;;;;0.08;77.81;101890.09;5104354;29;20041;-81
2023/01/21 01:11:56;;;;;;;1.50;1.45;;;;;;;0.14;77.54;101904.91;5103662;28;20384;-82
2023/01/21 01:14:27;;;;;;;3.47;3.28;;;;;;;0.16;76.85;101908.44;5116601;29;20066;-81
2023/01/21 01:16:57;;;;;;;2.13;0.93;;;;;;;0.20;77.47;101910.31;5117535;28;20036;-82
2023/01/21 01:19:28;;;;;;;0.60;0.60;;;;;;;0.21;76.90;101914.63;5092841;29;20036;-82
2023/01/21 01:21:58;;;;;;;1.58;1.55;;;;;;;0.18;76.71;101922.28;5130144;28;20129;-82
2023/01/21 01:24:29;;;;;;;5.45;1.95;;;;;;;0.19;76.98;101925.72;5130423;28;20045;-82
2023/01/21 01:27:00;;;;;;;1.95;1.85;;;;;;;0.04;77.05;101926.06;5107645;28;20541;-83
2023/01/21 01:29:31;;;;;;;5.93;2.05;;;;;;;0.08;77.21;101928.81;5131930;28;20027;-81
2023/01/21 01:32:01;;;;;;;2.13;0.93;;;;;;;0.08;76.99;101933.09;5113381;28;20038;-82
2023/01/21 01:34:31;;;;;;;2.67;2.22;;;;;;;0.00;77.57;101943.16;5103599;28;20019;-80
2023/01/21 01:37:02;;;;;;;2.83;1.30;;;;;;;-0.03;77.01;101943.91;5115785;28;20370;-82
2023/01/21 01:39:33;;;;;;;1.58;1.48;;;;;;;0.00;77.09;101948.31;5116090;28;20085;-82
2023/01/21 01:42:03;;;;;;;1.92;1.83;;;;;;;-0.05;77.34;101955.88;5120734;28;20035;-81
2023/01/21 01:44:57;;;;;;;1.20;1.17;;;;;;;-0.08;77.81;101952.31;5121816;28;20043;-82
2023/01/21 01:47:35;;;;;;;1.77;1.67;;;;;;;-0.09;77.50;101963.47;5137168;28;20038;-82
2023/01/21 01:50:10;;;;;;;0.95;0.95;;;;;;;-0.05;77.39;101960.16;5103779;28;20261;-82
2023/01/21 01:52:42;;;;;;;1.10;1.10;;;;;;;-0.09;76.99;101966.91;5119071;28;20504;-81
2023/01/21 01:55:14;;;;;;;0.55;0.55;;;;;;;-0.02;77.19;101963.72;5104056;28;20039;-82
2023/01/21 01:57:49;;;;;;;1.80;1.70;;;;;;;-0.04;77.11;101965.34;5115633;28;20066;-81
2023/01/21 02:00:20;;;;;;;1.67;1.58;;;;;;;-0.04;77.31;101965.34;5118743;29;20035;-83
2023/01/21 02:05:42;;;;;;;2.08;1.98;;;;;;;0.03;76.95;101978.50;5129728;28;20039;-81
2023/01/21 02:08:13;;;;;;;1.90;1.30;;;;;;;-0.01;76.67;101980.97;5101548;28;20042;-81
2023/01/21 02:10:43;;;;;;;1.33;1.33;;;;;;;-0.06;76.94;101982.50;5115070;28;20031;-81
2023/01/21 02:13:15;;;;;;;0.88;0.88;;;;;;;-0.04;76.59;101973.09;5117003;28;20035;-82
2023/01/21 02:16:07;;;;;;;4.25;3.70;;;;;;;-0.03;76.77;101982.59;5121795;28;20091;-81
2023/01/21 02:18:40;;;;;;;0.68;0.68;;;;;;;-0.04;76.98;101985.13;5133919;28;20122;-81
2023/01/21 02:21:29;;;;;;;1.48;1.48;;;;;;;-0.06;76.68;101987.66;5122119;28;20079;-83
2023/01/21 02:24:18;;;;;;;4.53;2.67;;;;;;;-0.14;76.87;101994.25;5115094;29;20048;-82
2023/01/21 02:27:08;;;;;;;0.40;0.40;;;;;;;-0.14;76.57;101998.50;5122151;28;20047;-81
2023/01/21 02:29:48;;;;;;;0.82;0.82;;;;;;;-0.06;77.08;101997.09;5118534;29;20036;-82
2023/01/21 02:32:38;;;;;;;0.63;0.63;;;;;;;-0.11;76.78;101998.63;5136329;28;20062;-82
2023/01/21 02:35:35;;;;;;;1.75;1.65;;;;;;;-0.22;76.80;102005.97;5158508;28;20736;-83
2023/01/21 02:38:27;;;;;;;1.80;1.70;;;;;;;-0.36;77.48;101997.72;5115996;28;20049;-82
2023/01/21 02:41:18;;;;;;;0.68;0.68;;;;;;;-0.24;77.00;102002.44;5114828;28;20045;-82
2023/01/21 02:43:48;;;;;;;3.42;2.50;;;;;;;-0.40;77.64;102001.88;5125240;28;20023;-81
2023/01/21 02:46:32;;;;;;;1.70;1.60;;;;;;;-0.26;77.27;102006.66;5126199;28;20046;-82
2023/01/21 02:49:18;;;;;;;1.75;1.65;;;;;;;-0.24;77.70;102012.78;5118831;28;20027;-81
2023/01/21 02:51:49;;;;;;;1.48;1.38;;;;;;;-0.18;76.80;102023.31;5104633;28;20070;-81
2023/01/21 02:54:37;;;;;;;0.80;0.80;;;;;;;-0.19;76.41;102024.13;5123343;28;20093;-82
2023/01/21 02:57:13;;;;;;;3.75;3.45;;;;;;;-0.15;76.90;102033.75;5138806;28;20070;-81
2023/01/21 02:59:48;;;;;;;1.55;1.50;;;;;;;-0.17;76.80;102030.25;5126994;28;20027;-82
2023/01/21 03:02:50;;;;;;;19.20;4.93;;;;;;;-0.14;77.02;102037.22;5130433;28;20554;-81
2023/01/21 03:05:29;;;;;;;1.45;1.42;;;;;;;-0.18;77.08;102044.84;5119210;28;20090;-82
2023/01/21 03:08:16;;;;;;;2.30;2.10;;;;;;;-0.16;77.05;102044.91;5105443;28;20498;-82
2023/01/21 03:11:03;;;;;;;0.88;0.88;;;;;;;-0.25;76.48;102062.59;5109883;28;20031;-82
2023/01/21 03:19:38;;;;;;;;;;;;;;;-0.47;76.92;102077.22;5117653;29;20143;-81
2023/01/21 03:22:14;;;;;;;1.60;1.08;;;;;;;-0.66;78.13;102079.06;5112176;28;20274;-81
2023/01/21 03:24:50;;;;;;;0.90;0.90;;;;;;;-0.46;77.10;102079.00;5122787;29;20028;-81
2023/01/21 03:27:23;;;;;;;0.95;0.95;;;;;;;-0.40;76.77;102079.22;5090012;29;20521;-81
2023/01/21 03:30:01;;;;;;;6.00;2.65;;;;;;;-0.38;77.41;102080.19;5105362;29;20109;-83
2023/01/21 03:32:34;;;;;;;1.40;1.30;;;;;;;-0.42;77.28;102080.88;5114494;28;20476;-81
2023/01/21 03:35:06;;;;;;;11.63;3.90;;;;;;;-0.41;76.96;102079.19;5108097;29;20042;-81
2023/01/21 03:37:45;;;;;;;0.45;0.45;;;;;;;-0.40;76.93;102080.91;5102873;29;20059;-81
2023/01/21 03:40:31;;;;;;;0.55;0.55;;;;;;;-0.34;77.04;102084.63;5091195;29;20038;-81
2023/01/21 03:43:02;;;;;;;3.60;3.22;;;;;;;-0.30;76.94;102088.22;5099632;29;20047;-81
2023/01/21 03:46:30;;;;;;;1.83;1.73;;;;;;;-0.34;76.35;102091.50;5118134;29;20040;-81
2023/01/21 03:49:12;;;;;;;1.35;1.35;;;;;;;-0.33;76.63;102093.25;5078789;29;20040;-82
2023/01/21 03:51:49;;;;;;;0.93;0.93;;;;;;;-0.33;76.76;102101.00;5070876;29;20040;-81
2023/01/21 03:54:20;;;;;;;1.60;1.50;;;;;;;-0.34;77.13;102114.72;5088125;29;20046;-82
2023/01/21 03:56:51;;;;;;;1.80;1.70;;;;;;;-0.27;76.96;102105.50;5100893;28;20035;-82
2023/01/21 03:59:21;;;;;;;3.10;2.67;;;;;;;-0.42;76.80;102109.22;5101377;29;20038;-82
2023/01/21 04:01:52;;;;;;;1.30;1.30;;;;;;;-0.35;76.72;102102.63;5117255;28;20046;-81
2023/01/21 04:04:22;;;;;;;0.90;0.90;;;;;;;-0.33;76.84;102101.88;5113232;29;20085;-82
2023/01/21 04:06:53;;;;;;;1.55;1.45;;;;;;;-0.38;76.79;102103.41;5129005;28;20126;-82
2023/01/21 04:09:23;;;;;;;0.43;0.43;;;;;;;-0.47;76.21;102108.19;5118263;28;20090;-81
2023/01/21 04:11:54;;;;;;;0.75;0.75;;;;;;;-0.48;76.59;102112.44;5116251;28;20564;-81
2023/01/21 04:14:24;;;;;;;0.95;0.95;;;;;;;-0.44;76.91;102112.56;5130134;28;20038;-81
2023/01/21 04:16:55;;;;;;;0.40;0.40;;;;;;;-0.50;76.71;102113.19;5094149;29;20040;-80
2023/01/21 04:19:25;;;;;;;1.05;1.05;;;;;;;-0.52;76.94;102115.72;5130503;28;20685;-81
2023/01/21 04:21:56;;;;;;;2.03;1.85;;;;;;;-0.46;76.56;102109.94;5117922;28;20054;-81
2023/01/21 04:24:26;;;;;;;2.10;1.98;;;;;;;-0.43;76.43;102112.63;5118995;28;20031;-82
2023/01/21 04:26:56;;;;;;;1.60;1.55;;;;;;;-0.48;76.36;102124.47;5119763;28;20118;-81
2023/01/21 04:29:27;;;;;;;1.00;1.00;;;;;;;-0.52;76.44;102128.63;5102203;29;20512;-82
2023/01/21 04:31:57;;;;;;;1.65;1.58;;;;;;;-0.52;76.31;102133.78;5114511;28;20134;-82
2023/01/21 04:34:28;;;;;;;3.38;1.90;;;;;;;-0.50;75.89;102121.84;5101237;28;20027;-82
2023/01/21 04:36:58;;;;;;;0.55;0.55;;;;;;;-0.49;76.81;102125.28;5102251;29;20048;-81
2023/01/21 04:39:29;;;;;;;3.35;3.17;;;;;;;-0.50;76.32;102126.09;5117227;28;20043;-81
2023/01/21 04:41:59;;;;;;;2.90;2.75;;;;;;;-0.49;76.24;102125.28;5130958;28;20121;-81
2023/01/21 04:44:30;;;;;;;1.92;1.83;;;;;;;-0.49;75.85;102131.31;5116105;28;20023;-81
2023/01/21 04:47:00;;;;;;;1.27;1.27;;;;;;;-0.46;75.77;102137.41;5118852;28;20086;-81
2023/01/21 04:49:31;;;;;;;0.85;0.85;;;;;;;-0.44;75.77;102140.94;5101339;29;20043;-80
2023/01/21 04:52:01;;;;;;;1.27;1.27;;;;;;;-0.50;76.42;102146.72;5116357;28;20118;-80
2023/01/21 04:54:32;;;;;;;3.67;2.42;;;;;;;-0.48;75.87;102139.94;5113764;28;20038;-80
2023/01/21 04:57:02;;;;;;;0.63;0.63;;;;;;;-0.61;75.82;102142.81;5132471;28;20035;-81
2023/01/21 04:59:33;;;;;;;5.15;1.10;;;;;;;-0.53;76.02;102144.00;5115814;28;20510;-80
2023/01/21 05:02:03;;;;;;;2.35;2.15;;;;;;;-0.54;76.05;102148.28;5111640;28;20045;-80
2023/01/21 05:04:33;;;;;;;0.50;0.50;;;;;;;-0.79;76.58;102151.53;5132788;28;20106;-79
2023/01/21 05:07:04;;;;;;;3.03;2.78;;;;;;;-0.64;76.17;102153.88;5122771;28;20039;-80
2023/01/21 05:09:34;;;;;;;1.75;1.67;;;;;;;-0.85;76.77;102156.41;5114532;28;20036;-81
2023/01/21 05:12:05;;;;;;;0.65;0.65;;;;;;;-0.76;76.56;102172.28;5129780;28;20067;-80
2023/01/21 05:14:36;;;;;;;5.35;3.65;;;;;;;-0.69;76.06;102158.84;5116296;29;20046;-80
2023/01/21 05:17:06;;;;;;;1.50;1.45;;;;;;;-0.70;75.91;102166.50;5115218;28;20042;-81
2023/01/21 05:19:37;;;;;;;5.10;2.38;;;;;;;-0.77;75.79;102173.09;5114653;28;20601;-80
2023/01/21 05:22:07;;;;;;;3.72;2.83;;;;;;;-0.74;76.26;102175.81;5115960;28;20035;-82
2023/01/21 05:24:38;;;;;;;1.58;1.55;;;;;;;-0.88;76.92;102176.91;5128213;28;20099;-81
2023/01/21 05:27:08;;;;;;;1.05;1.05;;;;;;;-0.90;77.04;102183.69;5120219;28;20043;-81
2023/01/21 05:29:39;;;;;;;2.15;2.05;;;;;;;-0.83;76.33;102184.03;5107736;29;20048;-81
2023/01/21 05:32:09;;;;;;;2.72;2.63;;;;;;;-0.89;76.71;102186.31;5137941;28;20052;-81
2023/01/21 05:34:40;;;;;;;1.33;1.33;;;;;;;-0.88;77.33;102192.38;5120415;28;20042;-80
2023/01/21 05:37:10;;;;;;;3.30;2.97;;;;;;;-0.86;76.44;102193.31;5120730;28;20043;-80
2023/01/21 05:39:42;;;;;;;1.45;1.35;;;;;;;-1.04;77.49;102201.13;5134309;28;20028;-81
2023/01/21 05:42:12;;;;;;;3.08;2.90;;;;;;;-0.96;77.06;102207.50;5151666;28;20039;-81
2023/01/21 05:44:43;;;;;;;2.00;1.88;;;;;;;-0.92;76.93;102206.84;5142349;28;20038;-80
2023/01/21 05:47:13;;;;;;;1.92;1.85;;;;;;;-0.91;76.90;102210.28;5124936;29;20039;-81
2023/01/21 05:49:44;;;;;;;1.60;1.50;;;;;;;-0.96;76.69;102210.97;5135373;29;20067;-81
2023/01/21 05:52:14;;;;;;;3.25;2.95;;;;;;;-1.03;76.88;102208.91;5129325;28;20031;-80
2023/01/21 05:54:45;;;;;;;1.42;1.42;;;;;;;-1.13;77.14;102211.91;5115533;29;20035;-80
2023/01/21 05:57:15;;;;;;;38.10;3.70;;;;;;;-0.96;76.60;102216.13;5122414;28;20046;-80
2023/01/21 05:59:46;;;;;;;0.93;0.93;;;;;;;-0.94;76.57;102218.75;5113778;29;20031;-80
2023/01/21 06:02:16;;;;;;;4.90;3.55;;;;;;;-0.92;76.63;102219.72;5119114;28;20510;-81
2023/01/21 06:04:46;;;;;;;3.08;2.88;;;;;;;-0.92;76.09;102223.97;5127887;28;20066;-81
2023/01/21 06:07:17;;;;;;;0.98;0.98;;;;;;;-0.87;75.92;102223.38;5106871;28;20306;-80
2023/01/21 06:09:48;;;;;;;2.47;2.38;;;;;;;-0.87;75.96;102230.22;5111144;29;20039;-79
2023/01/21 06:12:18;;;;;;;3.60;2.47;;;;;;;-0.83;75.99;102229.53;5115993;28;20098;-80
2023/01/21 06:14:48;;;;;;;2.92;2.72;;;;;;;-0.78;76.27;102230.59;5114029;28;20027;-81
2023/01/21 06:17:19;;;;;;;1.33;1.30;;;;;;;-0.77;75.72;102227.22;5098054;28;20054;-80
2023/01/21 06:19:49;;;;;;;0.98;0.98;;;;;;;-0.78;75.78;102240.91;5122339;29;20123;-81
2023/01/21 06:22:20;;;;;;;1.52;1.42;;;;;;;-0.78;76.02;102242.63;5107515;28;20047;-80
2023/01/21 06:24:50;;;;;;;1.52;1.50;;;;;;;-0.77;76.42;102240.09;5135622;28;20039;-80
2023/01/21 06:27:21;;;;;;;1.35;1.35;;;;;;;-0.75;75.53;102246.22;5118876;28;20063;-82
2023/01/21 06:29:51;;;;;;;4.55;3.05;;;;;;;-0.74;76.01;102253.13;5115202;28;20074;-79
2023/01/21 06:32:22;;;;;;;1.17;1.17;;;;;;;-0.74;76.04;102250.56;5117334;28;20043;-82
2023/01/21 06:34:52;;;;;;;0.60;0.60;;;;;;;-0.73;75.72;102256.59;5132046;28;20059;-79
2023/01/21 06:37:23;;;;;;;0.98;0.98;;;;;;;-0.75;75.14;102253.09;5116927;29;20090;-81
2023/01/21 06:39:53;;;;;;;0.70;0.70;;;;;;;-0.80;75.36;102258.03;5119383;28;20667;-79
2023/01/21 06:42:24;;;;;;;1.60;1.50;;;;;;;-0.81;75.65;102262.28;5101845;29;20052;-82
2023/01/21 06:44:54;;;;;;;2.60;2.40;;;;;;;-0.82;75.51;102267.38;5108215;28;20131;-78
2023/01/21 06:47:25;;;;;;;4.03;2.00;;;;;;;-0.82;75.39;102275.13;5112619;28;20548;-78
2023/01/21 06:49:55;;;;;;;1.45;1.38;;;;;;;-0.83;75.50;102279.41;5116426;29;20032;-80
2023/01/21 06:52:25;;;;;;;2.58;1.23;;;;;;;-0.86;75.72;102286.09;5124835;28;20043;-78
2023/01/21 06:54:56;;;;;;;1.67;1.58;;;;;;;-0.85;75.44;102283.59;5112093;28;20071;-80
2023/01/21 06:57:26;;;;;;;4.13;3.83;;;;;;;-0.97;75.80;102289.06;5126877;28;20043;-78
2023/01/21 06:59:57;;;;;;;2.15;1.90;;;;;;;-1.12;76.15;102296.97;5114357;28;20039;-80
2023/01/21 07:02:27;;;;;;;1.17;1.17;;;;;;;-1.04;75.94;102305.06;5113425;28;20045;-83
2023/01/21 07:04:58;;;;;;;1.13;1.10;;;;;;;-1.07;75.82;102304.06;5133560;28;20169;-82
2023/01/21 07:07:28;;;;;;;0.73;0.70;;;;;;;-1.01;75.75;102305.19;5135581;28;20659;-82
2023/01/21 07:09:59;;;;;;;2.58;2.45;;;;;;;-1.03;75.47;102311.09;5136888;28;20502;-81
2023/01/21 07:12:29;;;;;;;1.67;1.58;;;;;;;-1.01;75.92;102312.06;5136186;28;20802;-80
2023/01/21 07:14:59;;;;;;;0.65;0.65;;;;;;;-1.11;76.30;102319.34;5123335;28;20126;-81
2023/01/21 07:17:31;;;;;;;2.58;2.40;;;;;;;-1.01;75.52;102315.50;5108208;28;20070;-82
2023/01/21 07:20:03;;;;;;;1.25;1.25;;;;;;;-0.96;75.50;102321.78;5116532;28;20031;-81
2023/01/21 07:22:34;;;;;;;0.40;0.40;;;;;;;-1.00;76.04;102314.69;5109722;29;20051;-82
2023/01/21 07:25:05;;;;;;;0.68;0.68;;;;;;;-1.02;76.14;102321.47;5128913;28;20503;-81
2023/01/21 07:27:36;;;;;;;1.88;1.77;;;;;;;-0.91;75.67;102321.09;5118800;28;20067;-81
2023/01/21 07:30:07;;;;;;;0.50;0.50;;;;;;;-0.90;75.25;102331.44;5116184;28;20722;-81
2023/01/21 07:32:37;;;;;;;2.05;1.85;;;;;;;-0.94;75.73;102326.97;5098190;28;20039;-81
2023/01/21 07:35:08;;;;;;;1.33;1.23;;;;;;;-0.99;75.72;102325.91;5123846;28;20027;-82
2023/01/21 07:37:39;;;;;;;2.15;2.05;;;;;;;-1.00;75.78;102330.16;5115475;29;20043;-82
2023/01/21 07:40:10;;;;;;;3.03;2.83;;;;;;;-0.98;75.67;102333.69;5123425;28;20058;-81
2023/01/21 07:42:40;;;;;;;1.45;1.40;;;;;;;-0.94;75.22;102329.56;5116850;28;20140;-82
2023/01/21 07:45:11;;;;;;;3.13;2.83;;;;;;;-0.90;74.81;102333.16;5118903;28;20031;-82
2023/01/21 07:47:41;;;;;;;1.95;1.85;;;;;;;-0.95;75.20;102346.69;5112684;28;20043;-82
2023/01/21 07:50:12;;;;;;;2.90;2.78;;;;;;;-0.91;75.22;102344.28;5131918;28;20066;-83
2023/01/21 07:52:42;;;;;;;2.63;1.63;;;;;;;-0.91;75.27;102345.19;5102426;29;20110;-82
2023/01/21 07:55:13;;;;;;;2.53;2.42;;;;;;;-0.93;74.92;102351.94;5119768;28;20094;-82
2023/01/21 07:57:43;;;;;;;2.15;1.70;;;;;;;-0.99;75.13;102357.69;5120963;28;20048;-82
2023/01/21 08:00:14;;;;;;;1.10;1.10;;;;;;;-1.00;74.97;102358.50;5128772;28;20116;-82
2023/01/21 08:02:44;;;;;;;1.73;1.65;;;;;;;-1.03;75.58;102371.22;5092006;28;20051;-83
2023/01/21 08:05:15;;;;;;;0.98;0.98;;;;;;;-0.99;75.71;102373.16;5117745;28;20063;-81
2023/01/21 08:07:46;;;;;;;3.97;3.67;;;;;;;-1.00;75.41;102373.97;5111597;28;20039;-82
2023/01/21 08:10:17;;;;;;;2.25;2.15;;;;;;;-1.05;75.17;102385.75;5114217;28;20035;-82
2023/01/21 08:12:48;;;;;;;2.60;2.45;;;;;;;-1.03;75.04;102381.53;5101640;28;20122;-82
2023/01/21 08:17:48;;;;;;;4.28;3.97;;;;;;;-1.12;75.73;102392.28;5261434;27;20453;-79
2023/01/21 08:20:18;;;;;;;5.82;3.15;;;;;;;-1.15;76.05;102406.72;5252745;28;20064;-80
2023/01/21 08:22:49;;;;;;;2.45;2.25;;;;;;;-1.12;76.13;102404.31;5252670;28;20053;-79
2023/01/21 08:25:19;;;;;;;0.93;0.93;;;;;;;-1.09;76.11;102403.56;5253358;28;20033;-79
2023/01/21 08:27:49;;;;;;;1.67;1.60;;;;;;;-1.30;76.99;102401.69;5236277;28;20057;-79
2023/01/21 08:30:20;;;;;;;1.80;1.70;;;;;;;-1.28;76.27;102395.81;5247492;28;20032;-79
2023/01/21 08:32:52;;;;;;;1.38;1.35;;;;;;;-1.15;76.91;102399.00;5227956;28;20503;-79
2023/01/21 08:35:23;;;;;;;1.33;1.33;;;;;;;-1.13;76.12;102402.53;5230338;28;20119;-79
2023/01/21 08:37:56;;;;;;;5.13;3.92;;;;;;;-1.37;77.65;102403.13;5251430;28;20123;-81
2023/01/21 08:40:26;;;;;;;0.80;0.80;;;;;;;-1.43;78.00;102405.38;5233948;28;20037;-81
2023/01/21 08:43:02;;;;;;;3.65;2.03;;;;;;;-1.55;79.42;102403.06;5249184;28;20056;-81
2023/01/21 08:45:32;;;;;;;2.53;2.42;;;;;;;-1.45;78.48;102412.16;5249708;28;20407;-81
2023/01/21 08:48:03;;;;;;;2.83;2.63;;;;;;;-1.34;78.05;102408.41;5251163;28;20051;-80
2023/01/21 08:50:33;;;;;;;4.07;3.78;;;;;;;-1.44;79.42;102416.47;5248331;28;20036;-81
2023/01/21 08:53:04;;;;;;;1.27;1.27;;;;;;;-1.53;79.71;102423.75;5237885;28;20057;-82
2023/01/21 08:55:35;;;;;;;1.17;1.17;;;;;;;-1.21;78.13;102429.63;5234281;28;20045;-81
2023/01/21 08:58:05;;;;;;;3.22;3.03;;;;;;;-1.46;80.08;102433.56;5239146;28;20040;-81
2023/01/21 09:00:36;;;;;;;0.93;0.93;;;;;;;-1.48;80.40;102437.72;5230300;28;20074;-81
2023/01/21 09:03:06;;;;;;;2.72;2.60;;;;;;;-1.49;80.54;102435.97;5245223;28;20110;-81
2023/01/21 09:05:37;;;;;;;1.95;1.85;;;;;;;-1.34;79.89;102441.00;5236951;28;20029;-80
2023/01/21 09:08:07;;;;;;;1.30;1.30;;;;;;;-1.38;80.22;102444.22;5246495;28;20070;-80
2023/01/21 09:13:36;;;;;;;1.73;1.65;;;;;;;-1.44;81.97;102457.66;5245495;28;20044;-80
2023/01/21 09:16:09;;;;;;;3.00;2.47;;;;;;;-1.53;82.16;102464.94;5210954;28;20040;-81
2023/01/21 09:18:40;;;;;;;1.93;1.83;;;;;;;-1.36;81.28;102469.22;5230306;28;20328;-80
2023/01/21 09:21:11;;;;;;;1.25;1.25;;;;;;;-1.29;80.90;102475.59;5230642;28;20242;-81
2023/01/21 09:23:43;;;;;;;2.78;2.42;;;;;;;-1.39;82.11;102476.81;5229514;28;20029;-81
2023/01/21 09:26:19;;;;;;;1.00;1.00;;;;;;;-1.32;82.26;102486.63;5229230;28;20036;-81
2023/01/21 09:28:55;;;;;;;1.88;1.77;;;;;;;-1.27;82.50;102487.72;5232955;28;20017;-79
2023/01/21 09:31:28;;;;;;;3.15;2.60;;;;;;;-1.32;82.68;102494.34;5223136;28;20041;-79
2023/01/21 09:34:01;;;;;;;3.90;3.60;;;;;;;-1.27;83.03;102498.03;5215089;28;20628;-80
2023/01/21 09:36:33;;;;;;;1.23;1.23;;;;;;;-1.33;84.36;102495.16;5227395;28;20121;-79
2023/01/21 09:39:05;;;;;;;1.70;1.60;;;;;;;-1.21;83.20;102496.59;5212471;28;20032;-79
2023/01/21 09:41:37;;;;;;;4.80;4.47;;;;;;;-1.21;83.55;102506.88;5228630;28;20435;-79
2023/01/21 09:44:16;;;;;;;3.05;2.85;;;;;;;-1.18;82.25;102513.06;5229661;28;20025;-79
2023/01/21 09:47:02;;;;;;;1.30;1.30;;;;;;;-1.14;82.61;102514.97;5223600;28;20080;-80
2023/01/21 09:49:40;;;;;;;5.32;1.90;;;;;;;-1.17;83.29;102519.09;5232382;28;20098;-80
2023/01/21 09:52:33;;;;;;;1.85;1.75;;;;;;;-1.08;82.52;102518.69;5217378;28;20093;-80
2023/01/21 09:55:05;;;;;;;2.45;2.35;;;;;;;-1.07;83.08;102521.34;5226119;28;20101;-80
2023/01/21 09:57:51;;;;;;;0.90;0.90;;;;;;;-0.97;82.97;102532.97;5236901;28;20079;-79
2023/01/21 10:00:55;;;;;;;2.17;2.08;;;;;;;-1.15;83.45;102523.50;5230055;28;20052;-79
2023/01/21 10:03:39;;;;;;;;;;;;;;;-1.03;83.61;102523.25;5249361;28;20067;-78
2023/01/21 10:06:11;;;;;;;2.70;2.10;;;;;;;-0.95;82.13;102528.78;5223169;28;19920;-79
2023/01/21 10:08:46;;;;;;;1.52;1.15;;;;;;;-0.96;82.22;102527.00;5228480;28;20467;-79
2023/01/21 10:11:36;;;;;;;1.27;1.25;;;;;;;-1.14;84.04;102525.28;5216500;28;20040;-79
2023/01/21 10:14:34;;;;;;;0.93;0.93;;;;;;;-1.04;83.25;102533.47;5222403;28;20024;-79
2023/01/21 10:17:14;;;;;;;2.15;2.05;;;;;;;-0.96;82.98;102525.34;5232703;28;20041;-80
2023/01/21 10:19:51;;;;;;;2.75;2.63;;;;;;;-0.93;82.99;102528.84;5218939;28;20494;-80
2023/01/21 10:22:28;;;;;;;1.98;0.98;;;;;;;-0.76;82.57;102524.53;5233842;28;20527;-81
2023/01/21 10:25:13;;;;;;;4.88;4.47;;;;;;;-0.85;82.90;102517.22;5228305;28;20139;-81
2023/01/21 10:27:44;;;;;;;1.30;1.27;;;;;;;-0.91;83.56;102519.50;5219678;28;20040;-82
2023/01/21 10:30:33;;;;;;;1.45;1.45;;;;;;;-0.86;83.37;102525.75;5220827;28;20686;-81
2023/01/21 10:33:11;;;;;;;2.97;2.83;;;;;;;-0.78;83.30;102524.44;5233281;28;20045;-80
2023/01/21 10:35:53;;;;;;;2.22;2.13;;;;;;;-0.77;82.79;102526.22;5222354;28;20033;-79
2023/01/21 10:38:45;;;;;;;1.95;1.85;;;;;;;-0.64;82.34;102522.53;5225041;28;20049;-79
2023/01/21 10:41:31;;;;;;;1.42;1.42;;;;;;;-0.66;82.38;102524.19;5238187;28;20028;-80
2023/01/21 10:44:20;;;;;;;2.40;1.52;;;;;;;-0.60;82.11;102513.25;5225289;28;20066;-80
2023/01/21 10:46:58;;;;;;;1.50;1.48;;;;;;;-0.57;82.45;102523.72;5225131;28;20053;-81
2023/01/21 10:49:51;;;;;;;1.15;1.15;;;;;;;-0.65;83.15;102519.09;5231008;28;20049;-80
2023/01/21 10:52:40;;;;;;;2.38;2.20;;;;;;;-0.58;82.07;102517.69;5233397;28;20041;-81
2023/01/21 10:55:49;;;;;;;2.22;2.08;;;;;;;-0.64;82.28;102523.44;5207022;28;20024;-81
2023/01/21 10:58:26;;;;;;;3.35;2.10;;;;;;;-0.66;82.89;102526.75;5217904;28;20584;-81
2023/01/21 11:01:00;;;;;;;0.93;0.93;;;;;;;-0.69;83.75;102530.06;5238856;28;20087;-81
2023/01/21 11:03:46;;;;;;;1.88;1.77;;;;;;;-0.58;83.27;102517.69;5220895;28;20403;-80
2023/01/21 11:06:19;;;;;;;3.05;2.85;;;;;;;-0.56;82.63;102520.34;5234666;28;20028;-80
2023/01/21 11:09:01;;;;;;;0.95;0.95;;;;;;;-0.49;82.48;102517.25;5233425;28;20327;-80
2023/01/21 11:11:34;;;;;;;2.15;2.05;;;;;;;-0.50;83.05;102516.38;5214741;28;20049;-80
2023/01/21 11:14:05;;;;;;;0.80;0.80;;;;;;;-0.49;83.04;102527.56;5222218;28;20351;-80
2023/01/21 11:16:38;;;;;;;3.22;2.92;;;;;;;-0.45;82.71;102519.13;5218128;28;20303;-80
2023/01/21 11:19:21;;;;;;;3.38;2.85;;;;;;;-0.53;83.37;102520.47;5221139;28;20067;-80
2023/01/21 11:22:05;;;;;;;3.45;3.25;;;;;;;-0.43;82.69;102525.25;5215313;28;20037;-80
2023/01/21 11:24:50;;;;;;;1.23;1.23;;;;;;;-0.46;82.73;102525.13;5215164;28;20033;-80
2023/01/21 11:27:31;;;;;;;3.55;3.25;;;;;;;-0.35;82.87;102525.63;5209024;28;20062;-80
2023/01/21 11:30:03;;;;;;;8.57;3.22;;;;;;;-0.21;82.30;102528.88;5221665;28;20033;-79
2023/01/21 11:32:34;;;;;;;0.50;0.50;;;;;;;-0.14;81.39;102530.91;5231696;28;20045;-80
2023/01/21 11:35:14;;;;;;;3.10;2.80;;;;;;;-0.18;81.92;102526.41;5207027;28;20036;-79
2023/01/21 11:37:45;;;;;;;1.80;1.70;;;;;;;-0.15;82.13;102526.56;5234822;28;20048;-82
2023/01/21 11:40:24;;;;;;;4.18;3.90;;;;;;;-0.17;82.46;102530.75;5219853;28;20028;-81
2023/01/21 11:42:55;;;;;;;2.38;2.17;;;;;;;-0.29;82.50;102525.03;5229361;28;20562;-79
2023/01/21 11:45:36;;;;;;;1.13;1.13;;;;;;;-0.20;82.58;102520.28;5231561;28;20051;-80
2023/01/21 11:48:19;;;;;;;0.95;0.95;;;;;;;-0.25;82.92;102520.09;5224629;28;20435;-80
2023/01/21 11:51:04;;;;;;;2.67;2.47;;;;;;;-0.01;81.44;102522.91;5222830;28;20041;-80
2023/01/21 11:53:34;;;;;;;2.33;1.58;;;;;;;-0.11;82.42;102514.69;5237188;28;20045;-80
2023/01/21 11:56:06;;;;;;;1.73;1.63;;;;;;;-0.05;82.21;102514.94;5220723;28;20287;-80
2023/01/21 11:58:41;;;;;;;0.98;0.95;;;;;;;-0.08;81.81;102523.44;5231276;28;20123;-81
2023/01/21 12:01:21;;;;;;;4.20;3.47;;;;;;;-0.02;82.06;102512.53;5232458;28;20296;-81
2023/01/21 12:03:56;;;;;;;1.38;1.33;;;;;;;0.09;82.40;102505.25;5231974;28;20009;-79
2023/01/21 12:06:30;;;;;;;0.55;0.55;;;;;;;0.10;81.69;102507.03;5240625;28;20100;-80
2023/01/21 12:09:06;;;;;;;2.38;2.28;;;;;;;0.08;82.08;102504.38;5242595;28;20179;-81
2023/01/21 12:11:37;;;;;;;0.88;0.88;;;;;;;0.16;81.94;102507.28;5223112;28;20033;-80
2023/01/21 12:14:22;;;;;;;2.33;2.22;;;;;;;0.37;81.30;102506.50;5207912;28;20051;-81